Terminal Aerodrome Forecast
Issued by NWS Cleveland, OH

Home | Current Version | Previous Version | Text Only | Print | Product List | Glossary On
Versions: 1 2 3 4 5 6 7 8 9 10 11 12 13 14 15 16 17 18 19
000
FTUS41 KCLE 010600 AAA
TAFTOL
TAF AMD
KTOL 010621Z 0106/0206 VRB03KT 1SM -SN OVC012
     FM010800 02005KT 1SM -SN BR OVC007
     FM011600 04010KT 1/2SM SN OVC005
     FM012200 04015G25KT 1/2SM SN BLSN OVC003
     FM020500 04018G28KT 1 1/2SM -SN BLSN OVC005=

USA.gov is the U.S. government's official web portal to all federal, state and local government web resources and services.